ADDS METAR Data INFO
IDs: Format: Raw Decoded Include TAF

Data at: 0307 UTC 21 Oct 2017

KSTS 210253Z 00000KT 10SM CLR 13/07 A3012 RMK AO2 SLP194 T01280072 53007
KSTS 210153Z 27009KT 10SM FEW080 SCT250 13/07 A3009 RMK AO2 SLP184 T01280072
KSTS 210053Z 26007KT 10SM FEW080 FEW250 14/07 A3009 RMK AO2 SLP182 T01440072
KSTS 202353Z 25010KT 10SM SCT060 16/08 A3010 RMK AO2 SLP187 T01610083 10178 20117 53002
KSTS 202253Z 26008KT 10SM FEW038 SCT060 17/08 A3008 RMK AO2 SLP180 T01720083
KSTS 202153Z VRB06KT 10SM FEW041 SCT060 17/07 A3007 RMK AO2 SLP177 T01720072
KSTS 202053Z 26005KT 10SM SCT030 BKN100 16/08 A3009 RMK AO2 SLP185 T01610083 51002
KSTS 201953Z 25008KT 10SM SCT022 BKN100 15/09 A3009 RMK AO2 SLP184 T01500089
KSTS 201853Z COR 26006KT 10SM SCT022 BKN100 14/09 A3010 RMK AO2 SLP185 T01390094
KSTS 201753Z 20005KT 10SM BCFG FEW030 BKN250 12/10 A3009 RMK AO2 SLP183 T01170100 10117 20050 51021
KSTS 201653Z 22004KT 10SM BCFG SCT030 BKN200 09/09 A3008 RMK AO2 SLP178 T00940094
KSTS 201553Z 01003KT 10SM BCFG SCT250 08/08 A3004 RMK AO2 SLP167 T00830083
KSTS 201453Z 36007KT 10SM BCFG FEW030 SCT250 06/06 A3003 RMK AO2 SLP161 T00610061 51013
KSTS 201425Z 35004KT 7SM BCFG SCT001 SCT250 06/06 A3002 RMK AO2 VIS SE-NW 2 T00610061
KSTS 201353Z 36003KT 3/4SM BR BKN003 BKN060 06/06 A3002 RMK AO2 SLP160 T00560056
KSTS 201314Z AUTO 30004KT 3/4SM BR VV003 06/06 A3000 RMK AO2 T00610061
KSTS 201311Z AUTO 30005KT 1 1/2SM BR FEW003 06/06 A3000 RMK AO2 T00610061
KSTS 201253Z AUTO 00000KT 5SM BR CLR 07/07 A3000 RMK AO2 SLP151 T00720072
KSTS 201246Z AUTO 18005KT 2SM BR CLR 07/07 A2999 RMK AO2 VIS 1V5 T00720072
KSTS 201153Z AUTO 19003KT 10SM CLR 09/08 A2999 RMK AO2 SLP148 60006 70021 T00890083 10122 20083 51028
KSTS 201053Z AUTO 00000KT 10SM CLR 09/08 A2996 RMK AO2 SLP140 T00940083
KSTS 200953Z AUTO 25008KT 10SM CLR 10/09 A2994 RMK AO2 SLP132 T01000094
KSTS 200853Z AUTO 26005KT 10SM SCT110 10/09 A2990 RMK AO2 SLP120 60006 T01000094 51023
KSTS 200753Z AUTO 34004KT 10SM OVC080 12/10 A2989 RMK AO2 RAE30 SLP115 P0001 T01170100 401720094
KSTS 200653Z AUTO 35009KT 8SM -RA FEW013 BKN041 OVC080 12/11 A2988 RMK AO2 SLP112 P0005 T01220111
KSTS 200553Z AUTO 27007KT 7SM -RA OVC048 12/11 A2983 RMK AO2 WSHFT 0500 SLP096 P0005 60015 T01220111 10156 20122 53004
KSTS 200522Z AUTO 27012G20KT 10SM -RA FEW007 OVC045 13/12 A2981 RMK AO2 WSHFT 0500 P0002 T01330122
KSTS 200514Z AUTO 26014G22KT 10SM -RA SCT007 BKN010 OVC045 14/12 A2981 RMK AO2 WSHFT 0500 P0002 T01390122
KSTS 200453Z AUTO 19011G18KT 3SM RA BR OVC005 16/15 A2979 RMK AO2 RAB29 CIG 004V011 SLP081 P0007 T01560150
KSTS 200353Z AUTO 17008KT 8SM OVC005 15/14 A2982 RMK AO2 RAB23E33 SLP092 P0000 T01500144
KSTS 200253Z AUTO 18006KT 4SM BR OVC003 14/14 A2984 RMK AO2 SLP099 60003 T01390139 56017
KSTS 200153Z 19006KT 2SM BR OVC005 14/14 A2986 RMK AO2 RAE49 SLP104 P0000 T01390139
KSTS 200053Z 19006KT 2SM -RA BR OVC008 14/14 A2987 RMK AO2 SLP108 P0003 T01390139
KSTS 200010Z 19006KT 2SM RA BR BKN007 OVC013 14/14 A2989 RMK AO2 P0001 T01440139
KSTS 200002Z 21005KT 2 1/2SM -RA BR OVC010 14/14 A2989 RMK AO2 P0000 T01440139
KSTS 192355Z 20005KT 2 1/2SM -RA BR BKN008 BKN014 OVC023 14/14 A2989 RMK AO2 P0000 T01440139
KSTS 192353Z 20005KT 2 1/2SM -RA BR OVC010 14/14 A2989 RMK AO2 SLP116 P0000 60000 T01440139 10172 20139 58014
KSTS 192301Z 21004KT 2 1/2SM -RA BR BKN010 OVC015 15/14 A2990 RMK AO2 CIG 008V013 P0000 T01500139
KSTS 192253Z 23006KT 4SM -RA BR OVC015 15/13 A2990 RMK AO2 RAB46 SLP120 P0000 T01500133
KSTS 192153Z 19006KT 10SM OVC020 17/12 A2992 RMK AO2 SLP125 T01670122
KSTS 192053Z 20008KT 10SM FU OVC020 17/12 A2993 RMK AO2 SLP130 T01670122 58017
KSTS 192036Z 19010KT 10SM FU OVC020 16/12 A2993 RMK AO2 T01610122
KSTS 191953Z 20008KT 10SM FU SCT015 OVC050 17/12 A2995 RMK AO2 SLP137 T01720117
KSTS 191907Z 21005KT 10SM FU SCT015 OVC045 17/11 A2997 RMK AO2 T01670111
KSTS 191900Z VRB03KT 10SM FU BKN020 OVC060 16/11 A2997 RMK AO2 T01610111
KSTS 191853Z 23004KT 6SM HZ FU SCT015 OVC045 16/11 A2998 RMK AO2 SLP145 T01610106
KSTS 191753Z 00000KT 6SM HZ FU SCT015 OVC045 13/10 A2998 RMK AO2 SLP147 T01330100 10139 20094 51004
KSTS 191653Z 00000KT 9SM FU SCT009 BKN050 12/09 A2998 RMK AO2 SLP146 T01220094
KSTS 191553Z 00000KT 6SM BR FU SCT006 BKN050 11/09 A2998 RMK AO2 SLP146 T01110094